createdAt,value
2022-08-14T00:02:02.941Z,101376.19
2022-08-14T00:04:42.469Z,101373.56
2022-08-14T00:07:14.035Z,101370.97
2022-08-14T00:09:55.714Z,101373.56
2022-08-14T00:12:33.630Z,101366.69
2022-08-14T00:15:09.251Z,101363.09
2022-08-14T00:17:38.140Z,101350.94
2022-08-14T00:20:15.196Z,101356.19
2022-08-14T00:22:57.596Z,101345.69
2022-08-14T00:25:41.662Z,101352.72
2022-08-14T00:28:15.552Z,101355.34
2022-08-14T00:30:46.888Z,101346.66
2022-08-14T00:33:15.404Z,101337.97
2022-08-14T00:36:36.866Z,101337.97
2022-08-14T00:38:29.787Z,101333.66
2022-08-14T00:40:58.546Z,101328.28
2022-08-14T00:43:25.003Z,101330.91
2022-08-14T00:46:02.363Z,101330.91
2022-08-14T00:48:34.676Z,101329.09
2022-08-14T00:51:10.482Z,101326.63
2022-08-14T00:53:38.560Z,101322.22
2022-08-14T00:56:07.119Z,101317.91
2022-08-14T00:58:36.225Z,101309.22
2022-08-14T01:01:11.699Z,101312.69
2022-08-14T01:03:42.327Z,101309.22
2022-08-14T01:06:11.162Z,101315.31
2022-08-14T01:08:58.275Z,101303.00
2022-08-14T01:11:35.607Z,101301.34
2022-08-14T01:14:04.807Z,101296.22
2022-08-14T01:16:53.167Z,101301.34
2022-08-14T01:19:41.436Z,101294.44
2022-08-14T01:22:08.735Z,101291.81
2022-08-14T01:24:41.254Z,101286.56
2022-08-14T01:27:07.614Z,101283.09
2022-08-14T01:29:58.538Z,101275.22
2022-08-14T01:32:24.309Z,101278.69
2022-08-14T01:35:21.072Z,101273.59
2022-08-14T01:37:54.664Z,101266.53
2022-08-14T01:40:33.270Z,101270.97
2022-08-14T01:43:18.856Z,101275.34
2022-08-14T01:45:57.676Z,101272.72
2022-08-14T01:48:37.154Z,101263.09
2022-08-14T01:51:18.764Z,101260.47
2022-08-14T01:53:54.815Z,101250.09
2022-08-14T01:56:30.699Z,101249.13
2022-08-14T01:59:10.131Z,101253.53
2022-08-14T02:01:57.986Z,101249.97
2022-08-14T02:04:55.223Z,101246.50
2022-08-14T02:07:17.397Z,101241.25
2022-08-14T02:10:02.673Z,101246.50
2022-08-14T02:12:32.912Z,101235.19
2022-08-14T02:15:01.597Z,101232.69
2022-08-14T02:17:30.891Z,101238.75
2022-08-14T02:19:58.686Z,101235.31
2022-08-14T02:22:37.498Z,101237.13
2022-08-14T02:25:12.476Z,101238.75
2022-08-14T02:28:24.615Z,101236.13
2022-08-14T02:30:29.670Z,101235.31
2022-08-14T02:32:57.887Z,101237.94
2022-08-14T02:35:32.570Z,101244.00
2022-08-14T02:37:59.908Z,101239.75
2022-08-14T02:40:32.425Z,101245.81
2022-08-14T02:43:00.843Z,101238.06
2022-08-14T02:45:38.641Z,101234.50
2022-08-14T02:49:02.562Z,101231.03
2022-08-14T02:51:00.734Z,101233.66
2022-08-14T02:53:29.335Z,101234.63
2022-08-14T02:55:56.502Z,101232.97
2022-08-14T02:58:31.133Z,101234.63
2022-08-14T03:00:58.990Z,101222.47
2022-08-14T03:03:26.031Z,101225.09
2022-08-14T03:05:54.252Z,101230.34
2022-08-14T03:08:22.060Z,101222.47
2022-08-14T03:10:50.263Z,101226.03
2022-08-14T03:13:20.855Z,101225.22
2022-08-14T03:15:55.263Z,101223.41
2022-08-14T03:18:30.728Z,101216.41
2022-08-14T03:21:07.695Z,101217.34
2022-08-14T03:23:36.369Z,101219.97
2022-08-14T03:26:07.071Z,101223.41
2022-08-14T03:28:34.284Z,101216.50
2022-08-14T03:31:03.787Z,101220.09
2022-08-14T03:33:37.983Z,101208.75
2022-08-14T03:37:50.921Z,101212.25
2022-08-14T03:39:14.408Z,101217.50
2022-08-14T03:41:48.004Z,101210.56
2022-08-14T03:47:03.179Z,101198.41
2022-08-14T03:49:30.206Z,101205.31
2022-08-14T03:52:00.565Z,101201.88
2022-08-14T03:54:27.470Z,101201.03
2022-08-14T03:56:54.493Z,101199.38
2022-08-14T03:59:20.959Z,101192.22
2022-08-14T04:02:01.220Z,101196.78
2022-08-14T04:04:33.431Z,101199.25
2022-08-14T04:07:00.688Z,101195.78
2022-08-14T04:09:27.805Z,101201.03
2022-08-14T04:11:56.244Z,101199.38
2022-08-14T04:14:24.591Z,101205.59
2022-08-14T04:16:50.933Z,101198.41
2022-08-14T04:19:19.242Z,101192.47
2022-08-14T04:22:03.700Z,101196.91
2022-08-14T04:24:31.831Z,101195.09
2022-08-14T04:27:10.462Z,101192.47
2022-08-14T04:29:42.520Z,101190.81
2022-08-14T04:33:00.015Z,101182.94
2022-08-14T04:34:58.989Z,101183.78
2022-08-14T04:37:45.302Z,101186.41
2022-08-14T04:40:31.185Z,101178.53
2022-08-14T04:43:17.295Z,101177.69
2022-08-14T04:45:44.971Z,101175.91
2022-08-14T04:48:13.998Z,101180.31
2022-08-14T04:51:01.458Z,101180.31
2022-08-14T04:53:34.673Z,101180.31
2022-08-14T04:56:05.831Z,101177.69
2022-08-14T04:58:34.328Z,101172.56
2022-08-14T05:01:04.050Z,101175.06
2022-08-14T05:03:31.980Z,101165.56
2022-08-14T05:06:00.515Z,101175.19
2022-08-14T05:08:50.543Z,101172.56
2022-08-14T05:11:15.064Z,101165.56
2022-08-14T05:16:31.557Z,101160.44
2022-08-14T05:19:18.400Z,101163.88
2022-08-14T05:21:59.880Z,101149.97
2022-08-14T05:24:28.801Z,101163.06
2022-08-14T05:26:55.780Z,101151.72
2022-08-14T05:29:23.072Z,101160.31
2022-08-14T05:31:49.547Z,101153.41
2022-08-14T05:34:23.640Z,101153.41
2022-08-14T05:36:58.857Z,101153.41
2022-08-14T05:39:29.748Z,101152.25
2022-08-14T05:41:56.699Z,101156.41
2022-08-14T05:44:27.863Z,101162.00
2022-08-14T05:46:56.748Z,101156.59
2022-08-14T05:49:23.161Z,101155.03
2022-08-14T05:51:59.486Z,101145.50
2022-08-14T05:54:28.066Z,101147.19
2022-08-14T05:57:02.531Z,101149.81
2022-08-14T05:59:36.770Z,101131.59
2022-08-14T06:02:07.522Z,101134.34
2022-08-14T06:04:36.733Z,101140.94
2022-08-14T06:07:03.251Z,101144.88
2022-08-14T06:09:35.520Z,101148.59
2022-08-14T06:12:10.548Z,101149.56
2022-08-14T06:14:38.716Z,101134.78
2022-08-14T06:17:05.523Z,101146.94
2022-08-14T06:19:31.876Z,101140.84
2022-08-14T06:21:59.462Z,101142.53
2022-08-14T06:24:27.472Z,101144.31
2022-08-14T06:27:04.382Z,101145.97
2022-08-14T06:29:34.671Z,101144.88
2022-08-14T06:32:38.333Z,101150.81
2022-08-14T06:35:03.523Z,101141.75
2022-08-14T06:37:48.835Z,101144.25
2022-08-14T06:40:27.600Z,101144.25
2022-08-14T06:43:07.205Z,101136.38
2022-08-14T06:45:36.045Z,101139.84
2022-08-14T06:48:06.287Z,101137.09
2022-08-14T06:50:39.599Z,101136.97
2022-08-14T06:53:06.332Z,101149.13
2022-08-14T06:55:32.723Z,101143.97
2022-08-14T06:57:59.091Z,101145.50
2022-08-14T07:00:30.809Z,101141.81
2022-08-14T07:03:17.049Z,101143.47
2022-08-14T07:05:54.982Z,101138.25
2022-08-14T07:08:29.713Z,101129.53
2022-08-14T07:11:00.018Z,101130.25
2022-08-14T07:13:27.526Z,101132.47
2022-08-14T07:15:55.712Z,101116.75
2022-08-14T07:18:32.809Z,101115.78
2022-08-14T07:21:00.932Z,101109.44
2022-08-14T07:23:27.675Z,101108.34
2022-08-14T07:25:59.366Z,101110.84
2022-08-14T07:28:34.763Z,101118.56
2022-08-14T07:31:05.753Z,101115.69
2022-08-14T07:33:37.683Z,101120.69
2022-08-14T07:36:27.415Z,101115.44
2022-08-14T07:38:57.104Z,101115.19
2022-08-14T07:41:23.487Z,101110.75
2022-08-14T07:43:55.811Z,101115.78
2022-08-14T07:46:29.248Z,101115.63
2022-08-14T07:48:56.776Z,101105.88
2022-08-14T07:51:23.314Z,101102.25
2022-08-14T07:53:50.244Z,101108.22
2022-08-14T07:56:47.695Z,101109.72
2022-08-14T07:59:10.546Z,101107.81
2022-08-14T08:01:48.483Z,101109.47
2022-08-14T08:04:25.029Z,101099.81
2022-08-14T08:06:53.987Z,101095.97
2022-08-14T08:09:25.099Z,101108.09
2022-08-14T08:12:00.451Z,101096.66
2022-08-14T08:14:28.426Z,101100.00
2022-08-14T08:16:56.316Z,101094.59
2022-08-14T08:19:23.291Z,101090.19
2022-08-14T08:21:50.767Z,101080.66
2022-08-14T08:24:20.921Z,101081.50
2022-08-14T08:26:50.692Z,101077.88
2022-08-14T08:29:28.649Z,101081.22
2022-08-14T08:31:56.562Z,101080.22
2022-08-14T08:34:29.389Z,101080.22
2022-08-14T08:36:58.050Z,101069.59
2022-08-14T08:39:24.444Z,101072.22
2022-08-14T08:41:57.203Z,101063.41
2022-08-14T08:44:32.793Z,101067.69
2022-08-14T08:47:05.245Z,101066.75
2022-08-14T08:49:48.464Z,101069.22
2022-08-14T08:52:31.021Z,101067.41
2022-08-14T08:54:59.074Z,101074.34
2022-08-14T08:57:27.303Z,101075.28
2022-08-14T08:59:55.291Z,101084.13
2022-08-14T09:02:26.067Z,101079.00
2022-08-14T09:05:03.613Z,101082.47
2022-08-14T09:07:30.563Z,101081.50
2022-08-14T09:09:59.770Z,101067.41
2022-08-14T09:12:32.430Z,101053.34
2022-08-14T09:15:08.982Z,101057.63
2022-08-14T09:17:43.040Z,101048.91
2022-08-14T09:20:12.341Z,101044.50
2022-08-14T09:22:48.215Z,101049.75
2022-08-14T09:25:16.373Z,101038.28
2022-08-14T09:27:42.846Z,101044.34
2022-08-14T09:30:31.577Z,101046.88
2022-08-14T09:33:07.413Z,101047.69
2022-08-14T09:36:10.572Z,101046.59
2022-08-14T09:39:01.854Z,101035.25
2022-08-14T09:42:21.537Z,101028.22
2022-08-14T09:45:08.457Z,101028.22
2022-08-14T09:47:45.577Z,101025.59
2022-08-14T09:50:33.667Z,101017.75
2022-08-14T09:53:06.426Z,101013.44
2022-08-14T09:55:45.476Z,101012.34
2022-08-14T09:58:19.854Z,101009.72
2022-08-14T10:00:53.920Z,101004.34
2022-08-14T10:03:34.028Z,101002.41
2022-08-14T10:06:09.768Z,100995.22
2022-08-14T10:09:03.281Z,100989.00
2022-08-14T10:11:35.937Z,100988.03
2022-08-14T10:14:21.078Z,100986.09
2022-08-14T10:16:57.928Z,100982.66
2022-08-14T10:19:29.057Z,100978.22
2022-08-14T10:23:14.988Z,100969.53
2022-08-14T10:24:54.798Z,100966.91
2022-08-14T10:27:26.546Z,100965.09
2022-08-14T10:30:00.603Z,100965.94
2022-08-14T10:32:36.732Z,100958.75
2022-08-14T10:35:13.519Z,100963.19
2022-08-14T10:37:50.514Z,100958.91
2022-08-14T10:40:37.605Z,100947.44
2022-08-14T10:43:23.355Z,100939.56
2022-08-14T10:45:59.735Z,100941.34
2022-08-14T10:49:02.673Z,100943.00
2022-08-14T10:51:33.924Z,100941.34
2022-08-14T10:54:35.509Z,100935.28
2022-08-14T10:57:12.332Z,100926.44
2022-08-14T10:59:43.478Z,100928.13
2022-08-14T11:02:45.103Z,100923.81
2022-08-14T11:05:18.302Z,100930.75
2022-08-14T11:08:09.032Z,100927.25
2022-08-14T11:10:47.627Z,100922.88
2022-08-14T11:13:21.191Z,100928.13
2022-08-14T11:15:51.105Z,100912.38
2022-08-14T11:18:20.522Z,100920.25
2022-08-14T11:21:00.192Z,100916.63
2022-08-14T11:23:38.407Z,100905.31
2022-08-14T11:26:07.982Z,100914.72
2022-08-14T11:28:47.032Z,100912.09
2022-08-14T11:31:18.507Z,100909.47
2022-08-14T11:33:48.800Z,100908.63
2022-08-14T11:36:17.959Z,100918.00
2022-08-14T11:38:46.527Z,100904.06
2022-08-14T11:41:14.441Z,100904.06
2022-08-14T11:43:57.914Z,100896.06
2022-08-14T11:46:30.865Z,100899.34
2022-08-14T11:49:06.196Z,100902.81
2022-08-14T11:51:50.916Z,100891.34
2022-08-14T11:54:35.041Z,100903.50
2022-08-14T11:57:02.276Z,100900.06
2022-08-14T11:59:33.174Z,100896.28
2022-08-14T12:03:00.730Z,100896.84
2022-08-14T12:05:00.318Z,100890.69
2022-08-14T12:07:27.072Z,100892.41
2022-08-14T12:09:57.625Z,100888.88
2022-08-14T12:12:35.746Z,100886.34
2022-08-14T12:15:12.744Z,100890.75
2022-08-14T12:17:50.468Z,100881.91
2022-08-14T12:20:30.012Z,100881.91
2022-08-14T12:23:00.570Z,100878.47
2022-08-14T12:25:27.398Z,100870.50
2022-08-14T12:27:59.316Z,100859.19
2022-08-14T12:30:43.696Z,100846.88
2022-08-14T12:33:31.068Z,100854.84
2022-08-14T12:36:05.772Z,100852.13
2022-08-14T12:38:38.560Z,100836.38
2022-08-14T12:41:11.494Z,100837.19
2022-08-14T12:43:51.512Z,100835.41
2022-08-14T12:46:35.895Z,100830.97
2022-08-14T12:49:09.651Z,100823.09
2022-08-14T12:51:37.457Z,100825.59
2022-08-14T12:54:27.778Z,100809.84
2022-08-14T12:57:17.053Z,100810.66
2022-08-14T12:59:45.545Z,100802.78
2022-08-14T13:02:26.157Z,100800.00
2022-08-14T13:04:57.722Z,100793.13
2022-08-14T13:07:27.126Z,100800.00
2022-08-14T13:09:59.398Z,100794.75
2022-08-14T13:12:33.158Z,100791.97
2022-08-14T13:15:09.286Z,100797.38
2022-08-14T13:17:42.642Z,100792.97
2022-08-14T13:20:24.195Z,100787.72
2022-08-14T13:22:52.536Z,100795.59
2022-08-14T13:25:27.613Z,100788.38
2022-08-14T13:27:57.594Z,100789.25
2022-08-14T13:30:26.333Z,100778.75
2022-08-14T13:32:54.775Z,100776.13
2022-08-14T13:35:25.302Z,100777.88
2022-08-14T13:37:53.517Z,100770.00
2022-08-14T13:40:26.575Z,100768.34
2022-08-14T13:42:53.744Z,100773.50
2022-08-14T13:45:22.071Z,100769.06
2022-08-14T13:47:50.021Z,100766.44
2022-08-14T13:50:21.079Z,100768.91
2022-08-14T13:52:56.458Z,100769.56
2022-08-14T13:55:25.894Z,100767.09
2022-08-14T13:58:05.008Z,100760.38
2022-08-14T14:00:35.595Z,100760.22
2022-08-14T14:03:05.529Z,100753.31
2022-08-14T14:05:52.725Z,100748.06
2022-08-14T14:08:42.915Z,100753.31
2022-08-14T14:11:09.583Z,100747.25
2022-08-14T14:13:37.083Z,100741.13
2022-08-14T14:16:09.411Z,100742.00
2022-08-14T14:18:42.341Z,100744.63
2022-08-14T14:21:09.242Z,100738.50
2022-08-14T14:23:36.060Z,100742.00
2022-08-14T14:26:03.380Z,100742.00
2022-08-14T14:28:32.135Z,100744.63
2022-08-14T14:31:05.984Z,100737.56
2022-08-14T14:33:47.806Z,100732.31
2022-08-14T14:36:20.886Z,100730.50
2022-08-14T14:38:52.607Z,100730.50
2022-08-14T14:41:22.313Z,100735.75
2022-08-14T14:43:51.654Z,100730.50
2022-08-14T14:46:19.885Z,100730.50
2022-08-14T14:48:53.978Z,100725.25
2022-08-14T14:51:21.967Z,100725.25
2022-08-14T14:53:48.531Z,100720.13
2022-08-14T14:56:49.986Z,100720.00
2022-08-14T14:59:01.907Z,100709.50
2022-08-14T15:01:28.693Z,100713.78
2022-08-14T15:03:55.356Z,100712.97
2022-08-14T15:06:30.407Z,100712.13
2022-08-14T15:09:01.746Z,100706.88
2022-08-14T15:11:32.168Z,100703.44
2022-08-14T15:14:00.105Z,100706.88
2022-08-14T15:16:27.868Z,100711.97
2022-08-14T15:18:54.369Z,100706.72
2022-08-14T15:21:20.799Z,100697.22
2022-08-14T15:23:48.024Z,100701.31
2022-08-14T15:26:24.544Z,100690.16
2022-08-14T15:29:02.776Z,100700.50
2022-08-14T15:31:31.212Z,100687.38
2022-08-14T15:34:43.445Z,100684.75
2022-08-14T15:36:59.709Z,100686.56
2022-08-14T15:39:29.544Z,100688.34
2022-08-14T15:42:03.330Z,100686.56
2022-08-14T15:44:34.302Z,100684.91
2022-08-14T15:47:06.711Z,100683.78
2022-08-14T15:49:34.784Z,100680.16
2022-08-14T15:52:03.246Z,100681.81
2022-08-14T15:54:31.416Z,100678.22
2022-08-14T15:57:00.985Z,100679.91
2022-08-14T15:59:48.236Z,100675.31
2022-08-14T16:02:16.258Z,100676.13
2022-08-14T16:04:45.775Z,100673.50
2022-08-14T16:07:17.875Z,100668.78
2022-08-14T16:09:48.334Z,100663.53
2022-08-14T16:12:19.659Z,100672.22
2022-08-14T16:15:06.406Z,100664.06
2022-08-14T16:17:44.055Z,100664.06
2022-08-14T16:20:11.644Z,100664.91
2022-08-14T16:22:59.409Z,100664.75
2022-08-14T16:25:34.347Z,100669.00
2022-08-14T16:28:03.560Z,100667.22
2022-08-14T16:30:34.238Z,100655.88
2022-08-14T16:33:04.591Z,100649.81
2022-08-14T16:35:43.476Z,100657.53
2022-08-14T16:38:45.620Z,100656.72
2022-08-14T16:41:29.468Z,100653.94
2022-08-14T16:44:04.630Z,100647.53
2022-08-14T16:46:40.058Z,100639.66
2022-08-14T16:49:13.267Z,100638.84
2022-08-14T16:51:41.239Z,100635.41
2022-08-14T16:54:20.929Z,100638.69
2022-08-14T16:57:13.346Z,100638.53
2022-08-14T16:59:52.739Z,100628.03
2022-08-14T17:02:39.662Z,100634.63
2022-08-14T17:05:20.931Z,100624.13
2022-08-14T17:08:28.475Z,100631.19
2022-08-14T17:10:52.165Z,100623.47
2022-08-14T17:13:47.423Z,100627.72
2022-08-14T17:16:25.297Z,100625.25
2022-08-14T17:18:55.457Z,100620.00
2022-08-14T17:21:38.076Z,100625.25
2022-08-14T17:24:56.449Z,100610.50
2022-08-14T17:27:04.071Z,100623.63
2022-08-14T17:29:34.760Z,100608.69
2022-08-14T17:32:21.918Z,100613.78
2022-08-14T17:34:55.273Z,100608.53
2022-08-14T17:37:35.467Z,100609.34
2022-08-14T17:40:19.237Z,100611.00
2022-08-14T17:42:46.214Z,100606.56
2022-08-14T17:45:28.630Z,100610.84
2022-08-14T17:48:09.916Z,100606.56
2022-08-14T17:51:01.254Z,100606.56
2022-08-14T17:53:30.459Z,100605.75
2022-08-14T17:56:01.039Z,100609.19
2022-08-14T17:58:30.960Z,100603.94
2022-08-14T18:01:12.916Z,100617.06
2022-08-14T18:03:44.917Z,100614.44
2022-08-14T18:06:39.767Z,100608.53
2022-08-14T18:09:25.064Z,100613.78
2022-08-14T18:11:55.088Z,100619.03
2022-08-14T18:14:32.763Z,100607.56
2022-08-14T18:17:10.605Z,100607.72
2022-08-14T18:19:41.447Z,100612.13
2022-08-14T18:22:24.064Z,100613.94
2022-08-14T18:24:56.301Z,100609.81
2022-08-14T18:27:28.301Z,100609.00
2022-08-14T18:29:57.913Z,100604.56
2022-08-14T18:32:27.092Z,100610.66
2022-08-14T18:35:03.624Z,100605.41
2022-08-14T18:37:39.356Z,100610.66
2022-08-14T18:40:18.127Z,100604.56
2022-08-14T18:42:51.004Z,100602.91
2022-08-14T18:45:42.893Z,100603.88
2022-08-14T18:48:28.683Z,100596.00
2022-08-14T18:51:12.479Z,100603.03
2022-08-14T18:53:57.037Z,100602.22
2022-08-14T18:56:56.882Z,100604.84
2022-08-14T18:59:35.776Z,100604.03
2022-08-14T19:02:30.548Z,100608.31
2022-08-14T19:04:59.722Z,100609.16
2022-08-14T19:07:33.441Z,100607.19
2022-08-14T19:10:07.268Z,100609.00
2022-08-14T19:12:52.387Z,100618.66
2022-08-14T19:15:29.928Z,100616.72
2022-08-14T19:18:10.689Z,100608.69
2022-08-14T19:21:00.009Z,100620.16
2022-08-14T19:23:43.928Z,100616.72
2022-08-14T19:26:35.905Z,100616.88
2022-08-14T19:29:25.559Z,100616.19
2022-08-14T19:32:00.072Z,100618.66
2022-08-14T19:34:52.351Z,100614.41
2022-08-14T19:37:52.462Z,100609.16
2022-08-14T19:40:33.402Z,100614.53
2022-08-14T19:43:00.755Z,100607.63
2022-08-14T19:45:27.822Z,100613.72
2022-08-14T19:47:54.278Z,100609.28
2022-08-14T19:50:38.134Z,100607.63
2022-08-14T19:53:12.020Z,100605.00
2022-08-14T19:55:54.256Z,100602.38
2022-08-14T19:58:28.081Z,100609.28
2022-08-14T20:01:01.104Z,100609.28
2022-08-14T20:03:58.977Z,100609.28
2022-08-14T20:06:35.519Z,100607.63
2022-08-14T20:11:04.939Z,100606.81
2022-08-14T20:12:02.798Z,100605.97
2022-08-14T20:14:36.013Z,100609.44
2022-08-14T20:17:06.687Z,100610.41
2022-08-14T20:19:37.556Z,100607.63
2022-08-14T20:22:37.018Z,100602.38
2022-08-14T20:24:55.272Z,100600.56
2022-08-14T20:27:33.523Z,100600.56
2022-08-14T20:30:33.195Z,100597.13
2022-08-14T20:33:02.348Z,100596.16
2022-08-14T20:35:35.083Z,100599.75
2022-08-14T20:38:29.181Z,100597.13
2022-08-14T20:41:05.868Z,100603.19
2022-08-14T20:43:55.936Z,100599.75
2022-08-14T20:46:29.777Z,100593.69
2022-08-14T20:49:01.616Z,100589.25
2022-08-14T20:51:43.653Z,100597.13
2022-08-14T20:54:34.592Z,100591.88
2022-08-14T20:57:06.874Z,100592.69
2022-08-14T20:59:39.900Z,100595.47
2022-08-14T21:02:34.599Z,100597.28
2022-08-14T21:05:16.417Z,100601.56
2022-08-14T21:07:50.380Z,100591.06
2022-08-14T21:10:35.260Z,100584.31
2022-08-14T21:13:13.963Z,100586.13
2022-08-14T21:15:56.771Z,100586.13
2022-08-14T21:18:24.936Z,100590.53
2022-08-14T21:20:56.403Z,100589.72
2022-08-14T21:23:23.125Z,100581.84
2022-08-14T21:25:49.573Z,100581.84
2022-08-14T21:28:27.678Z,100589.72
2022-08-14T21:30:57.815Z,100586.25
2022-08-14T21:33:25.328Z,100579.38
2022-08-14T21:35:57.131Z,100580.19
2022-08-14T21:38:34.310Z,100575.91
2022-08-14T21:41:42.935Z,100577.56
2022-08-14T21:44:18.360Z,100581.16
2022-08-14T21:46:54.160Z,100576.75
2022-08-14T21:49:34.098Z,100574.13
2022-08-14T21:52:50.281Z,100579.38
2022-08-14T21:54:59.451Z,100568.03
2022-08-14T21:58:45.825Z,100557.66
2022-08-14T22:00:34.698Z,100559.47
2022-08-14T22:03:04.223Z,100561.13
2022-08-14T22:05:30.946Z,100557.81
2022-08-14T22:07:57.803Z,100559.47
2022-08-14T22:10:24.463Z,100559.47
2022-08-14T22:13:00.033Z,100556.84
2022-08-14T22:15:28.483Z,100566.53
2022-08-14T22:17:55.303Z,100558.66
2022-08-14T22:20:25.490Z,100549.13
2022-08-14T22:22:56.198Z,100548.16
2022-08-14T22:25:23.251Z,100555.19
2022-08-14T22:28:01.365Z,100549.94
2022-08-14T22:30:27.853Z,100549.13
2022-08-14T22:32:57.546Z,100543.88
2022-08-14T22:35:24.962Z,100543.06
2022-08-14T22:38:35.079Z,100538.78
2022-08-14T22:41:02.390Z,100535.19
2022-08-14T22:43:31.179Z,100535.34
2022-08-14T22:45:58.156Z,100533.53
2022-08-14T22:48:29.667Z,100530.91
2022-08-14T22:50:56.165Z,100542.22
2022-08-14T22:53:23.682Z,100529.25
2022-08-14T22:55:52.129Z,100530.09
2022-08-14T22:58:31.753Z,100523.19
2022-08-14T23:01:02.301Z,100521.38
2022-08-14T23:03:34.069Z,100514.50
2022-08-14T23:06:01.660Z,100517.94
2022-08-14T23:08:58.527Z,100517.13
2022-08-14T23:11:15.072Z,100518.75
2022-08-14T23:13:43.732Z,100518.09
2022-08-14T23:16:19.576Z,100517.13
2022-08-14T23:18:46.424Z,100506.63
2022-08-14T23:21:15.520Z,100511.88
2022-08-14T23:23:43.614Z,100506.63
2022-08-14T23:26:46.981Z,100502.34
2022-08-14T23:28:58.674Z,100505.94
2022-08-14T23:31:34.676Z,100508.56
2022-08-14T23:34:07.491Z,100510.22
2022-08-14T23:36:38.006Z,100502.50
2022-08-14T23:39:19.541Z,100513.00
2022-08-14T23:41:52.673Z,100514.63
2022-08-14T23:44:22.818Z,100503.47
2022-08-14T23:46:52.589Z,100499.03
2022-08-14T23:49:22.894Z,100495.59
2022-08-14T23:52:49.329Z,100491.16
2022-08-14T23:54:48.408Z,100480.66
2022-08-14T23:57:19.114Z,100480.66
2022-08-14T23:59:54.666Z,100476.41
